sensor_id;sensor_type;location;lat;lon;timestamp;P1;durP1;ratioP1;P2;durP2;ratioP2
43744;SDS011;29359;53.048;8.732;2022-11-04T00:01:06;4.68;;;2.22;;
43744;SDS011;29359;53.048;8.732;2022-11-04T00:03:07;3.47;;;2.13;;
43744;SDS011;29359;53.048;8.732;2022-11-04T00:05:09;2.72;;;1.98;;
43744;SDS011;29359;53.048;8.732;2022-11-04T00:07:11;4.00;;;2.00;;
43744;SDS011;29359;53.048;8.732;2022-11-04T00:09:31;1.92;;;1.83;;
43744;SDS011;29359;53.048;8.732;2022-11-04T00:11:32;2.20;;;2.00;;
43744;SDS011;29359;53.048;8.732;2022-11-04T00:13:52;2.75;;;1.70;;
43744;SDS011;29359;53.048;8.732;2022-11-04T00:15:54;2.83;;;2.17;;
43744;SDS011;29359;53.048;8.732;2022-11-04T00:18:14;4.45;;;2.45;;
43744;SDS011;29359;53.048;8.732;2022-11-04T00:20:15;3.88;;;2.00;;
43744;SDS011;29359;53.048;8.732;2022-11-04T00:22:36;3.95;;;2.15;;
43744;SDS011;29359;53.048;8.732;2022-11-04T00:24:58;4.18;;;2.00;;
43744;SDS011;29359;53.048;8.732;2022-11-04T00:27:19;4.85;;;2.50;;
43744;SDS011;29359;53.048;8.732;2022-11-04T00:29:40;4.00;;;2.67;;
43744;SDS011;29359;53.048;8.732;2022-11-04T00:31:41;5.10;;;2.47;;
43744;SDS011;29359;53.048;8.732;2022-11-04T00:34:01;4.93;;;2.72;;
43744;SDS011;29359;53.048;8.732;2022-11-04T00:36:02;3.45;;;2.28;;
43744;SDS011;29359;53.048;8.732;2022-11-04T00:38:04;5.63;;;2.58;;
43744;SDS011;29359;53.048;8.732;2022-11-04T00:40:06;3.75;;;2.35;;
43744;SDS011;29359;53.048;8.732;2022-11-04T00:42:10;2.80;;;2.58;;
43744;SDS011;29359;53.048;8.732;2022-11-04T00:44:11;6.32;;;2.63;;
43744;SDS011;29359;53.048;8.732;2022-11-04T00:46:13;2.90;;;2.60;;
43744;SDS011;29359;53.048;8.732;2022-11-04T00:48:14;4.47;;;2.63;;
43744;SDS011;29359;53.048;8.732;2022-11-04T00:50:16;2.88;;;2.55;;
43744;SDS011;29359;53.048;8.732;2022-11-04T00:52:17;5.57;;;2.35;;
43744;SDS011;29359;53.048;8.732;2022-11-04T00:54:19;4.68;;;2.92;;
43744;SDS011;29359;53.048;8.732;2022-11-04T00:56:21;5.15;;;2.75;;
43744;SDS011;29359;53.048;8.732;2022-11-04T00:58:22;5.18;;;2.90;;
43744;SDS011;29359;53.048;8.732;2022-11-04T01:00:24;4.85;;;3.42;;
43744;SDS011;29359;53.048;8.732;2022-11-04T01:02:25;4.47;;;3.03;;
43744;SDS011;29359;53.048;8.732;2022-11-04T01:04:27;7.10;;;3.50;;
43744;SDS011;29359;53.048;8.732;2022-11-04T01:06:29;3.92;;;2.85;;
43744;SDS011;29359;53.048;8.732;2022-11-04T01:08:30;4.95;;;3.38;;
43744;SDS011;29359;53.048;8.732;2022-11-04T01:10:33;4.75;;;3.22;;
43744;SDS011;29359;53.048;8.732;2022-11-04T01:12:36;4.45;;;3.00;;
43744;SDS011;29359;53.048;8.732;2022-11-04T01:14:37;7.57;;;3.42;;
43744;SDS011;29359;53.048;8.732;2022-11-04T01:16:39;4.50;;;3.33;;
43744;SDS011;29359;53.048;8.732;2022-11-04T01:18:41;5.15;;;3.25;;
43744;SDS011;29359;53.048;8.732;2022-11-04T01:20:42;5.43;;;3.10;;
43744;SDS011;29359;53.048;8.732;2022-11-04T01:22:44;3.85;;;2.97;;
43744;SDS011;29359;53.048;8.732;2022-11-04T01:24:46;4.63;;;3.08;;
43744;SDS011;29359;53.048;8.732;2022-11-04T01:26:47;7.07;;;2.90;;
43744;SDS011;29359;53.048;8.732;2022-11-04T01:28:50;3.90;;;3.10;;
43744;SDS011;29359;53.048;8.732;2022-11-04T01:30:52;3.60;;;3.30;;
43744;SDS011;29359;53.048;8.732;2022-11-04T01:32:53;4.13;;;3.40;;
43744;SDS011;29359;53.048;8.732;2022-11-04T01:34:55;4.15;;;3.45;;
43744;SDS011;29359;53.048;8.732;2022-11-04T01:36:56;5.18;;;3.13;;
43744;SDS011;29359;53.048;8.732;2022-11-04T01:38:58;4.45;;;3.03;;
43744;SDS011;29359;53.048;8.732;2022-11-04T01:40:59;3.90;;;3.42;;
43744;SDS011;29359;53.048;8.732;2022-11-04T01:43:02;3.97;;;3.30;;
43744;SDS011;29359;53.048;8.732;2022-11-04T01:45:03;4.28;;;3.40;;
43744;SDS011;29359;53.048;8.732;2022-11-04T01:47:07;6.90;;;3.38;;
43744;SDS011;29359;53.048;8.732;2022-11-04T01:49:25;4.03;;;3.42;;
43744;SDS011;29359;53.048;8.732;2022-11-04T01:51:31;4.10;;;3.63;;
43744;SDS011;29359;53.048;8.732;2022-11-04T01:53:36;7.43;;;4.00;;
43744;SDS011;29359;53.048;8.732;2022-11-04T01:55:46;5.80;;;3.80;;
43744;SDS011;29359;53.048;8.732;2022-11-04T01:57:53;6.78;;;4.00;;
43744;SDS011;29359;53.048;8.732;2022-11-04T01:59:59;6.55;;;4.28;;
43744;SDS011;29359;53.048;8.732;2022-11-04T02:02:03;4.40;;;3.92;;
43744;SDS011;29359;53.048;8.732;2022-11-04T02:04:05;5.88;;;4.40;;
43744;SDS011;29359;53.048;8.732;2022-11-04T02:06:25;6.20;;;4.55;;
43744;SDS011;29359;53.048;8.732;2022-11-04T02:08:27;4.65;;;3.92;;
43744;SDS011;29359;53.048;8.732;2022-11-04T02:10:30;4.70;;;4.07;;
43744;SDS011;29359;53.048;8.732;2022-11-04T02:12:31;4.43;;;4.03;;
43744;SDS011;29359;53.048;8.732;2022-11-04T02:14:51;4.85;;;4.43;;
43744;SDS011;29359;53.048;8.732;2022-11-04T02:16:57;4.20;;;3.72;;
43744;SDS011;29359;53.048;8.732;2022-11-04T02:30:43;5.05;;;3.58;;
43744;SDS011;29359;53.048;8.732;2022-11-04T02:37:51;7.10;;;3.60;;
43744;SDS011;29359;53.048;8.732;2022-11-04T02:42:11;6.00;;;2.72;;
43744;SDS011;29359;53.048;8.732;2022-11-04T02:44:26;2.95;;;2.63;;
43744;SDS011;29359;53.048;8.732;2022-11-04T02:46:34;5.30;;;2.22;;
43744;SDS011;29359;53.048;8.732;2022-11-04T02:48:43;2.25;;;2.10;;
43744;SDS011;29359;53.048;8.732;2022-11-04T02:50:51;2.38;;;1.80;;
43744;SDS011;29359;53.048;8.732;2022-11-04T02:53:17;1.95;;;1.85;;
43744;SDS011;29359;53.048;8.732;2022-11-04T02:55:21;1.40;;;1.30;;
43744;SDS011;29359;53.048;8.732;2022-11-04T02:57:35;2.75;;;1.45;;
43744;SDS011;29359;53.048;8.732;2022-11-04T02:59:41;1.55;;;1.00;;
43744;SDS011;29359;53.048;8.732;2022-11-04T03:01:47;1.10;;;1.00;;
43744;SDS011;29359;53.048;8.732;2022-11-04T03:03:55;1.67;;;1.10;;
43744;SDS011;29359;53.048;8.732;2022-11-04T03:06:02;0.98;;;0.90;;
43744;SDS011;29359;53.048;8.732;2022-11-04T03:08:16;1.20;;;0.70;;
43744;SDS011;29359;53.048;8.732;2022-11-04T03:10:26;1.00;;;0.80;;
43744;SDS011;29359;53.048;8.732;2022-11-04T03:12:36;1.65;;;1.13;;
43744;SDS011;29359;53.048;8.732;2022-11-04T03:14:52;0.95;;;0.60;;
43744;SDS011;29359;53.048;8.732;2022-11-04T03:17:00;1.10;;;0.65;;
43744;SDS011;29359;53.048;8.732;2022-11-04T03:21:54;1.50;;;1.05;;
43744;SDS011;29359;53.048;8.732;2022-11-04T03:24:02;1.08;;;0.93;;
43744;SDS011;29359;53.048;8.732;2022-11-04T03:30:41;1.38;;;0.88;;
43744;SDS011;29359;53.048;8.732;2022-11-04T03:34:47;0.98;;;0.88;;
43744;SDS011;29359;53.048;8.732;2022-11-04T03:36:49;1.70;;;1.08;;
43744;SDS011;29359;53.048;8.732;2022-11-04T03:38:51;5.95;;;1.23;;
43744;SDS011;29359;53.048;8.732;2022-11-04T03:40:53;1.83;;;0.95;;
43744;SDS011;29359;53.048;8.732;2022-11-04T03:43:05;1.67;;;1.10;;
43744;SDS011;29359;53.048;8.732;2022-11-04T03:45:11;2.47;;;1.13;;
43744;SDS011;29359;53.048;8.732;2022-11-04T03:47:14;2.50;;;1.40;;
43744;SDS011;29359;53.048;8.732;2022-11-04T03:49:18;1.67;;;1.40;;
43744;SDS011;29359;53.048;8.732;2022-11-04T03:51:22;2.45;;;1.30;;
43744;SDS011;29359;53.048;8.732;2022-11-04T03:53:24;2.42;;;1.52;;
43744;SDS011;29359;53.048;8.732;2022-11-04T03:57:55;1.98;;;1.70;;
43744;SDS011;29359;53.048;8.732;2022-11-04T04:00:07;1.55;;;1.45;;
43744;SDS011;29359;53.048;8.732;2022-11-04T04:02:19;2.70;;;1.67;;
43744;SDS011;29359;53.048;8.732;2022-11-04T04:04:32;2.20;;;1.58;;
43744;SDS011;29359;53.048;8.732;2022-11-04T04:06:37;2.05;;;1.77;;
43744;SDS011;29359;53.048;8.732;2022-11-04T04:08:41;2.58;;;1.60;;
43744;SDS011;29359;53.048;8.732;2022-11-04T04:12:54;2.20;;;2.00;;
43744;SDS011;29359;53.048;8.732;2022-11-04T04:15:02;2.33;;;1.83;;
43744;SDS011;29359;53.048;8.732;2022-11-04T04:19:20;2.05;;;1.85;;
43744;SDS011;29359;53.048;8.732;2022-11-04T04:21:41;2.38;;;1.73;;
43744;SDS011;29359;53.048;8.732;2022-11-04T04:23:48;3.58;;;2.00;;
43744;SDS011;29359;53.048;8.732;2022-11-04T04:26:12;2.92;;;2.10;;
43744;SDS011;29359;53.048;8.732;2022-11-04T04:28:34;3.88;;;2.33;;
43744;SDS011;29359;53.048;8.732;2022-11-04T04:30:38;2.75;;;2.08;;
43744;SDS011;29359;53.048;8.732;2022-11-04T04:33:05;4.25;;;2.13;;
43744;SDS011;29359;53.048;8.732;2022-11-04T04:35:09;2.80;;;2.35;;
43744;SDS011;29359;53.048;8.732;2022-11-04T04:37:29;4.13;;;2.50;;
43744;SDS011;29359;53.048;8.732;2022-11-04T04:39:32;2.45;;;2.15;;
43744;SDS011;29359;53.048;8.732;2022-11-04T04:41:58;2.90;;;2.65;;
43744;SDS011;29359;53.048;8.732;2022-11-04T04:44:25;2.85;;;2.65;;
43744;SDS011;29359;53.048;8.732;2022-11-04T04:48:49;3.42;;;3.10;;
43744;SDS011;29359;53.048;8.732;2022-11-04T04:50:51;4.18;;;3.20;;
43744;SDS011;29359;53.048;8.732;2022-11-04T04:52:57;3.90;;;3.03;;
43744;SDS011;29359;53.048;8.732;2022-11-04T04:55:00;3.38;;;3.08;;
43744;SDS011;29359;53.048;8.732;2022-11-04T04:57:01;3.65;;;2.90;;
43744;SDS011;29359;53.048;8.732;2022-11-04T04:59:03;3.80;;;3.50;;
43744;SDS011;29359;53.048;8.732;2022-11-04T05:01:04;4.18;;;3.00;;
43744;SDS011;29359;53.048;8.732;2022-11-04T05:03:06;4.50;;;2.97;;
43744;SDS011;29359;53.048;8.732;2022-11-04T05:05:08;3.42;;;3.13;;
43744;SDS011;29359;53.048;8.732;2022-11-04T05:07:10;3.78;;;3.13;;
43744;SDS011;29359;53.048;8.732;2022-11-04T05:09:12;3.28;;;3.08;;
43744;SDS011;29359;53.048;8.732;2022-11-04T05:11:13;3.38;;;3.15;;
43744;SDS011;29359;53.048;8.732;2022-11-04T05:13:15;2.85;;;2.65;;
43744;SDS011;29359;53.048;8.732;2022-11-04T05:15:30;3.17;;;2.97;;
43744;SDS011;29359;53.048;8.732;2022-11-04T05:17:32;4.63;;;3.15;;
43744;SDS011;29359;53.048;8.732;2022-11-04T05:19:33;3.50;;;3.20;;
43744;SDS011;29359;53.048;8.732;2022-11-04T05:21:35;2.92;;;2.72;;
43744;SDS011;29359;53.048;8.732;2022-11-04T05:23:36;3.95;;;3.65;;
43744;SDS011;29359;53.048;8.732;2022-11-04T05:25:38;4.15;;;3.00;;
43744;SDS011;29359;53.048;8.732;2022-11-04T05:27:41;3.67;;;3.38;;
43744;SDS011;29359;53.048;8.732;2022-11-04T05:29:42;3.60;;;3.17;;
43744;SDS011;29359;53.048;8.732;2022-11-04T05:31:44;3.60;;;3.30;;
43744;SDS011;29359;53.048;8.732;2022-11-04T05:33:45;3.50;;;3.08;;
43744;SDS011;29359;53.048;8.732;2022-11-04T05:35:47;3.50;;;3.15;;
43744;SDS011;29359;53.048;8.732;2022-11-04T05:37:48;3.30;;;3.00;;
43744;SDS011;29359;53.048;8.732;2022-11-04T05:39:50;3.58;;;3.08;;
43744;SDS011;29359;53.048;8.732;2022-11-04T05:41:51;3.17;;;2.90;;
43744;SDS011;29359;53.048;8.732;2022-11-04T05:43:53;3.88;;;3.05;;
43744;SDS011;29359;53.048;8.732;2022-11-04T05:45:57;3.28;;;2.97;;
43744;SDS011;29359;53.048;8.732;2022-11-04T05:48:00;3.47;;;3.13;;
43744;SDS011;29359;53.048;8.732;2022-11-04T05:50:02;3.38;;;3.13;;
43744;SDS011;29359;53.048;8.732;2022-11-04T05:52:04;3.08;;;2.83;;
43744;SDS011;29359;53.048;8.732;2022-11-04T05:54:05;3.10;;;2.90;;
43744;SDS011;29359;53.048;8.732;2022-11-04T05:56:07;3.20;;;2.92;;
43744;SDS011;29359;53.048;8.732;2022-11-04T05:58:08;3.80;;;3.15;;
43744;SDS011;29359;53.048;8.732;2022-11-04T06:00:11;3.72;;;3.20;;
43744;SDS011;29359;53.048;8.732;2022-11-04T06:02:13;3.15;;;2.85;;
43744;SDS011;29359;53.048;8.732;2022-11-04T06:04:16;3.85;;;3.55;;
43744;SDS011;29359;53.048;8.732;2022-11-04T06:06:19;3.95;;;3.22;;
43744;SDS011;29359;53.048;8.732;2022-11-04T06:08:22;4.00;;;2.92;;
43744;SDS011;29359;53.048;8.732;2022-11-04T06:10:23;5.78;;;3.58;;
43744;SDS011;29359;53.048;8.732;2022-11-04T06:12:25;3.95;;;3.47;;
43744;SDS011;29359;53.048;8.732;2022-11-04T06:14:27;4.28;;;3.28;;
43744;SDS011;29359;53.048;8.732;2022-11-04T06:16:28;3.83;;;3.53;;
43744;SDS011;29359;53.048;8.732;2022-11-04T06:18:29;3.50;;;2.88;;
43744;SDS011;29359;53.048;8.732;2022-11-04T06:20:31;9.57;;;3.65;;
43744;SDS011;29359;53.048;8.732;2022-11-04T06:22:32;4.53;;;3.33;;
43744;SDS011;29359;53.048;8.732;2022-11-04T06:24:34;3.10;;;2.80;;
43744;SDS011;29359;53.048;8.732;2022-11-04T06:26:35;3.30;;;3.00;;
43744;SDS011;29359;53.048;8.732;2022-11-04T06:28:39;6.10;;;3.00;;
43744;SDS011;29359;53.048;8.732;2022-11-04T06:30:41;2.97;;;2.55;;
43744;SDS011;29359;53.048;8.732;2022-11-04T06:32:42;3.17;;;2.90;;
43744;SDS011;29359;53.048;8.732;2022-11-04T06:34:44;5.25;;;3.03;;
43744;SDS011;29359;53.048;8.732;2022-11-04T06:36:47;2.75;;;2.55;;
43744;SDS011;29359;53.048;8.732;2022-11-04T06:38:49;2.85;;;2.65;;
43744;SDS011;29359;53.048;8.732;2022-11-04T06:40:50;3.28;;;2.80;;
43744;SDS011;29359;53.048;8.732;2022-11-04T06:42:52;5.05;;;2.50;;
43744;SDS011;29359;53.048;8.732;2022-11-04T06:44:53;2.97;;;2.53;;
43744;SDS011;29359;53.048;8.732;2022-11-04T06:46:55;2.63;;;2.42;;
43744;SDS011;29359;53.048;8.732;2022-11-04T06:48:57;4.45;;;2.53;;
43744;SDS011;29359;53.048;8.732;2022-11-04T06:50:59;3.35;;;2.92;;
43744;SDS011;29359;53.048;8.732;2022-11-04T06:53:01;2.53;;;2.22;;
43744;SDS011;29359;53.048;8.732;2022-11-04T06:55:02;3.50;;;2.42;;
43744;SDS011;29359;53.048;8.732;2022-11-04T06:57:04;2.47;;;2.38;;
43744;SDS011;29359;53.048;8.732;2022-11-04T06:59:05;2.60;;;2.40;;
43744;SDS011;29359;53.048;8.732;2022-11-04T07:01:08;2.50;;;2.30;;
43744;SDS011;29359;53.048;8.732;2022-11-04T07:03:17;2.30;;;2.10;;
43744;SDS011;29359;53.048;8.732;2022-11-04T07:05:18;2.65;;;2.45;;
43744;SDS011;29359;53.048;8.732;2022-11-04T07:07:20;2.55;;;2.35;;
43744;SDS011;29359;53.048;8.732;2022-11-04T07:09:22;2.08;;;1.98;;
43744;SDS011;29359;53.048;8.732;2022-11-04T07:11:23;2.65;;;2.40;;
43744;SDS011;29359;53.048;8.732;2022-11-04T07:13:26;2.85;;;2.63;;
43744;SDS011;29359;53.048;8.732;2022-11-04T07:15:28;3.65;;;2.47;;
43744;SDS011;29359;53.048;8.732;2022-11-04T07:17:29;2.60;;;2.40;;
43744;SDS011;29359;53.048;8.732;2022-11-04T07:19:31;5.00;;;2.35;;
43744;SDS011;29359;53.048;8.732;2022-11-04T07:21:32;3.95;;;2.45;;
43744;SDS011;29359;53.048;8.732;2022-11-04T07:23:34;3.00;;;2.80;;
43744;SDS011;29359;53.048;8.732;2022-11-04T07:25:35;2.92;;;2.72;;
43744;SDS011;29359;53.048;8.732;2022-11-04T07:27:37;3.20;;;2.90;;
43744;SDS011;29359;53.048;8.732;2022-11-04T07:29:39;5.07;;;2.80;;
43744;SDS011;29359;53.048;8.732;2022-11-04T07:31:42;3.03;;;2.72;;
43744;SDS011;29359;53.048;8.732;2022-11-04T07:33:43;2.88;;;2.60;;
43744;SDS011;29359;53.048;8.732;2022-11-04T07:35:50;2.67;;;2.47;;
43744;SDS011;29359;53.048;8.732;2022-11-04T07:37:58;5.03;;;2.65;;
43744;SDS011;29359;53.048;8.732;2022-11-04T07:39:59;3.10;;;2.67;;
43744;SDS011;29359;53.048;8.732;2022-11-04T07:42:01;2.50;;;2.30;;
43744;SDS011;29359;53.048;8.732;2022-11-04T07:44:02;3.03;;;2.83;;
43744;SDS011;29359;53.048;8.732;2022-11-04T07:46:10;3.13;;;2.88;;
43744;SDS011;29359;53.048;8.732;2022-11-04T07:48:13;4.13;;;2.83;;
43744;SDS011;29359;53.048;8.732;2022-11-04T07:50:14;3.60;;;3.30;;
43744;SDS011;29359;53.048;8.732;2022-11-04T07:52:16;3.53;;;3.22;;
43744;SDS011;29359;53.048;8.732;2022-11-04T07:54:17;3.88;;;3.58;;
43744;SDS011;29359;53.048;8.732;2022-11-04T07:56:18;4.28;;;3.50;;
43744;SDS011;29359;53.048;8.732;2022-11-04T07:58:21;3.88;;;3.58;;
43744;SDS011;29359;53.048;8.732;2022-11-04T08:00:22;3.83;;;3.60;;
43744;SDS011;29359;53.048;8.732;2022-11-04T08:02:24;4.05;;;3.67;;
43744;SDS011;29359;53.048;8.732;2022-11-04T08:04:32;6.88;;;3.58;;
43744;SDS011;29359;53.048;8.732;2022-11-04T08:06:34;4.40;;;4.10;;
43744;SDS011;29359;53.048;8.732;2022-11-04T08:08:35;4.50;;;4.10;;
43744;SDS011;29359;53.048;8.732;2022-11-04T08:10:37;4.20;;;3.90;;
43744;SDS011;29359;53.048;8.732;2022-11-04T08:12:39;4.50;;;4.10;;
43744;SDS011;29359;53.048;8.732;2022-11-04T08:14:40;4.47;;;4.05;;
43744;SDS011;29359;53.048;8.732;2022-11-04T08:16:42;3.83;;;3.53;;
43744;SDS011;29359;53.048;8.732;2022-11-04T08:18:43;3.45;;;3.25;;
43744;SDS011;29359;53.048;8.732;2022-11-04T08:20:49;4.03;;;3.40;;
43744;SDS011;29359;53.048;8.732;2022-11-04T08:22:51;3.35;;;3.05;;
43744;SDS011;29359;53.048;8.732;2022-11-04T08:24:53;3.58;;;3.05;;
43744;SDS011;29359;53.048;8.732;2022-11-04T08:26:54;3.53;;;3.33;;
43744;SDS011;29359;53.048;8.732;2022-11-04T08:28:56;3.67;;;3.38;;
43744;SDS011;29359;53.048;8.732;2022-11-04T08:31:02;7.88;;;3.10;;
43744;SDS011;29359;53.048;8.732;2022-11-04T08:33:10;3.28;;;2.97;;
43744;SDS011;29359;53.048;8.732;2022-11-04T08:35:12;3.13;;;2.70;;
43744;SDS011;29359;53.048;8.732;2022-11-04T08:37:14;3.63;;;3.33;;
43744;SDS011;29359;53.048;8.732;2022-11-04T08:39:16;2.80;;;2.60;;
43744;SDS011;29359;53.048;8.732;2022-11-04T08:41:19;4.47;;;2.83;;
43744;SDS011;29359;53.048;8.732;2022-11-04T08:43:22;3.40;;;3.10;;
43744;SDS011;29359;53.048;8.732;2022-11-04T08:45:23;3.10;;;2.80;;
43744;SDS011;29359;53.048;8.732;2022-11-04T08:47:31;5.43;;;3.13;;
43744;SDS011;29359;53.048;8.732;2022-11-04T08:49:37;3.80;;;2.88;;
43744;SDS011;29359;53.048;8.732;2022-11-04T08:53:45;3.13;;;2.38;;
43744;SDS011;29359;53.048;8.732;2022-11-04T08:55:47;2.85;;;2.65;;
43744;SDS011;29359;53.048;8.732;2022-11-04T08:57:48;3.10;;;2.80;;
43744;SDS011;29359;53.048;8.732;2022-11-04T08:59:51;3.67;;;3.10;;
43744;SDS011;29359;53.048;8.732;2022-11-04T09:01:52;65.28;;;6.53;;
43744;SDS011;29359;53.048;8.732;2022-11-04T09:03:54;12.82;;;3.22;;
43744;SDS011;29359;53.048;8.732;2022-11-04T09:05:57;29.38;;;3.63;;
43744;SDS011;29359;53.048;8.732;2022-11-04T09:07:58;3.00;;;2.80;;
43744;SDS011;29359;53.048;8.732;2022-11-04T09:10:02;5.15;;;2.83;;
43744;SDS011;29359;53.048;8.732;2022-11-04T09:12:07;10.70;;;2.80;;
43744;SDS011;29359;53.048;8.732;2022-11-04T09:14:10;2.20;;;2.10;;
43744;SDS011;29359;53.048;8.732;2022-11-04T09:16:12;4.40;;;2.28;;
43744;SDS011;29359;53.048;8.732;2022-11-04T09:18:14;2.38;;;2.10;;
43744;SDS011;29359;53.048;8.732;2022-11-04T09:20:16;2.83;;;2.05;;
43744;SDS011;29359;53.048;8.732;2022-11-04T09:22:17;2.30;;;1.98;;
43744;SDS011;29359;53.048;8.732;2022-11-04T09:24:19;2.67;;;2.40;;
43744;SDS011;29359;53.048;8.732;2022-11-04T09:26:21;3.33;;;2.60;;
43744;SDS011;29359;53.048;8.732;2022-11-04T09:28:24;3.22;;;2.20;;
43744;SDS011;29359;53.048;8.732;2022-11-04T09:30:26;5.07;;;2.30;;
43744;SDS011;29359;53.048;8.732;2022-11-04T09:32:28;2.53;;;2.10;;
43744;SDS011;29359;53.048;8.732;2022-11-04T09:34:29;2.97;;;2.10;;
43744;SDS011;29359;53.048;8.732;2022-11-04T09:36:31;21.23;;;3.03;;
43744;SDS011;29359;53.048;8.732;2022-11-04T09:38:32;1.95;;;1.85;;
43744;SDS011;29359;53.048;8.732;2022-11-04T09:40:34;5.65;;;2.33;;
43744;SDS011;29359;53.048;8.732;2022-11-04T09:45:11;2.17;;;1.98;;
43744;SDS011;29359;53.048;8.732;2022-11-04T09:47:23;2.05;;;1.85;;
43744;SDS011;29359;53.048;8.732;2022-11-04T09:49:26;2.10;;;1.88;;
43744;SDS011;29359;53.048;8.732;2022-11-04T09:51:34;3.30;;;2.17;;
43744;SDS011;29359;53.048;8.732;2022-11-04T09:53:56;4.25;;;2.10;;
43744;SDS011;29359;53.048;8.732;2022-11-04T09:56:34;2.25;;;2.05;;
43744;SDS011;29359;53.048;8.732;2022-11-04T09:58:33;2.65;;;1.98;;
43744;SDS011;29359;53.048;8.732;2022-11-04T10:00:38;2.35;;;2.20;;
43744;SDS011;29359;53.048;8.732;2022-11-04T10:14:35;3.85;;;1.67;;
43744;SDS011;29359;53.048;8.732;2022-11-04T10:16:51;2.00;;;1.80;;
43744;SDS011;29359;53.048;8.732;2022-11-04T10:26:46;3.30;;;1.63;;
43744;SDS011;29359;53.048;8.732;2022-11-04T10:29:02;1.67;;;1.45;;
43744;SDS011;29359;53.048;8.732;2022-11-04T10:31:05;1.67;;;1.58;;
43744;SDS011;29359;53.048;8.732;2022-11-04T10:33:16;2.38;;;1.85;;
43744;SDS011;29359;53.048;8.732;2022-11-04T10:35:33;2.72;;;2.15;;
43744;SDS011;29359;53.048;8.732;2022-11-04T10:37:36;2.28;;;2.10;;
43744;SDS011;29359;53.048;8.732;2022-11-04T10:39:41;2.88;;;1.80;;
43744;SDS011;29359;53.048;8.732;2022-11-04T10:41:45;2.10;;;1.90;;
43744;SDS011;29359;53.048;8.732;2022-11-04T10:43:47;2.90;;;1.75;;
43744;SDS011;29359;53.048;8.732;2022-11-04T10:46:02;2.65;;;1.90;;
43744;SDS011;29359;53.048;8.732;2022-11-04T10:48:18;2.13;;;1.90;;
43744;SDS011;29359;53.048;8.732;2022-11-04T10:52:38;2.58;;;2.00;;
43744;SDS011;29359;53.048;8.732;2022-11-04T10:54:40;3.83;;;2.10;;
43744;SDS011;29359;53.048;8.732;2022-11-04T10:56:46;3.42;;;2.25;;
43744;SDS011;29359;53.048;8.732;2022-11-04T10:58:51;3.03;;;2.25;;
43744;SDS011;29359;53.048;8.732;2022-11-04T11:00:53;2.63;;;2.25;;
43744;SDS011;29359;53.048;8.732;2022-11-04T11:02:56;2.92;;;2.70;;
43744;SDS011;29359;53.048;8.732;2022-11-04T11:05:11;3.15;;;2.50;;
43744;SDS011;29359;53.048;8.732;2022-11-04T11:07:18;3.33;;;2.90;;
43744;SDS011;29359;53.048;8.732;2022-11-04T11:09:23;3.05;;;2.83;;
43744;SDS011;29359;53.048;8.732;2022-11-04T11:11:49;3.42;;;2.72;;
43744;SDS011;29359;53.048;8.732;2022-11-04T11:13:52;3.13;;;2.70;;
43744;SDS011;29359;53.048;8.732;2022-11-04T11:16:04;4.60;;;2.53;;
43744;SDS011;29359;53.048;8.732;2022-11-04T11:18:11;3.70;;;2.60;;
43744;SDS011;29359;53.048;8.732;2022-11-04T11:20:21;4.72;;;2.30;;
43744;SDS011;29359;53.048;8.732;2022-11-04T11:22:26;3.42;;;2.60;;
43744;SDS011;29359;53.048;8.732;2022-11-04T11:24:38;3.50;;;2.40;;
43744;SDS011;29359;53.048;8.732;2022-11-04T11:26:40;2.53;;;2.33;;
43744;SDS011;29359;53.048;8.732;2022-11-04T11:28:46;2.70;;;2.50;;
43744;SDS011;29359;53.048;8.732;2022-11-04T11:31:00;4.78;;;3.10;;
43744;SDS011;29359;53.048;8.732;2022-11-04T11:33:05;3.67;;;3.30;;
43744;SDS011;29359;53.048;8.732;2022-11-04T11:35:18;4.32;;;3.33;;
43744;SDS011;29359;53.048;8.732;2022-11-04T11:37:23;5.65;;;3.40;;
43744;SDS011;29359;53.048;8.732;2022-11-04T11:39:26;4.55;;;3.42;;
43744;SDS011;29359;53.048;8.732;2022-11-04T11:41:32;4.57;;;3.63;;
43744;SDS011;29359;53.048;8.732;2022-11-04T11:43:43;4.50;;;3.17;;
43744;SDS011;29359;53.048;8.732;2022-11-04T11:45:50;3.65;;;3.22;;
43744;SDS011;29359;53.048;8.732;2022-11-04T11:47:52;3.60;;;3.30;;
43744;SDS011;29359;53.048;8.732;2022-11-04T11:54:33;4.40;;;3.80;;
43744;SDS011;29359;53.048;8.732;2022-11-04T11:56:37;4.13;;;3.50;;
43744;SDS011;29359;53.048;8.732;2022-11-04T11:59:05;6.18;;;3.33;;
43744;SDS011;29359;53.048;8.732;2022-11-04T12:01:39;4.68;;;2.65;;
43744;SDS011;29359;53.048;8.732;2022-11-04T12:03:47;4.85;;;3.17;;
43744;SDS011;29359;53.048;8.732;2022-11-04T12:08:40;4.00;;;3.05;;
43744;SDS011;29359;53.048;8.732;2022-11-04T12:11:12;4.90;;;3.03;;
43744;SDS011;29359;53.048;8.732;2022-11-04T12:13:29;5.40;;;3.00;;
43744;SDS011;29359;53.048;8.732;2022-11-04T12:15:42;3.67;;;2.75;;
43744;SDS011;29359;53.048;8.732;2022-11-04T12:18:01;3.58;;;3.20;;
43744;SDS011;29359;53.048;8.732;2022-11-04T12:20:31;5.30;;;3.03;;
43744;SDS011;29359;53.048;8.732;2022-11-04T12:23:12;3.92;;;3.08;;
43744;SDS011;29359;53.048;8.732;2022-11-04T12:27:54;3.72;;;3.40;;
43744;SDS011;29359;53.048;8.732;2022-11-04T12:30:09;5.60;;;2.60;;
43744;SDS011;29359;53.048;8.732;2022-11-04T12:37:13;4.00;;;3.05;;
43744;SDS011;29359;53.048;8.732;2022-11-04T12:39:44;4.53;;;2.75;;
43744;SDS011;29359;53.048;8.732;2022-11-04T12:42:00;3.63;;;2.75;;
43744;SDS011;29359;53.048;8.732;2022-11-04T12:44:32;3.35;;;3.00;;
43744;SDS011;29359;53.048;8.732;2022-11-04T12:51:17;2.95;;;2.65;;
43744;SDS011;29359;53.048;8.732;2022-11-04T12:53:40;2.67;;;2.35;;
43744;SDS011;29359;53.048;8.732;2022-11-04T13:00:40;4.50;;;1.75;;
43744;SDS011;29359;53.048;8.732;2022-11-04T13:02:56;1.75;;;1.63;;
43744;SDS011;29359;53.048;8.732;2022-11-04T13:07:20;3.42;;;1.85;;
43744;SDS011;29359;53.048;8.732;2022-11-04T13:16:05;3.05;;;1.58;;
43744;SDS011;29359;53.048;8.732;2022-11-04T13:18:11;1.90;;;1.20;;
43744;SDS011;29359;53.048;8.732;2022-11-04T13:22:30;2.75;;;1.38;;
43744;SDS011;29359;53.048;8.732;2022-11-04T13:24:37;5.78;;;1.70;;
43744;SDS011;29359;53.048;8.732;2022-11-04T13:26:44;3.67;;;1.80;;
43744;SDS011;29359;53.048;8.732;2022-11-04T13:28:48;3.50;;;1.70;;
43744;SDS011;29359;53.048;8.732;2022-11-04T13:33:55;2.90;;;1.27;;
43744;SDS011;29359;53.048;8.732;2022-11-04T13:38:38;2.58;;;1.42;;
43744;SDS011;29359;53.048;8.732;2022-11-04T13:43:39;5.43;;;1.35;;
43744;SDS011;29359;53.048;8.732;2022-11-04T13:45:50;3.95;;;1.40;;
43744;SDS011;29359;53.048;8.732;2022-11-04T13:47:54;3.03;;;1.67;;
43744;SDS011;29359;53.048;8.732;2022-11-04T13:49:58;4.35;;;1.40;;
43744;SDS011;29359;53.048;8.732;2022-11-04T13:52:01;2.95;;;1.38;;
43744;SDS011;29359;53.048;8.732;2022-11-04T13:54:03;3.63;;;1.50;;
43744;SDS011;29359;53.048;8.732;2022-11-04T13:56:06;3.63;;;1.42;;
43744;SDS011;29359;53.048;8.732;2022-11-04T13:58:28;3.35;;;1.88;;
43744;SDS011;29359;53.048;8.732;2022-11-04T14:00:30;3.17;;;1.20;;
43744;SDS011;29359;53.048;8.732;2022-11-04T14:02:46;5.45;;;1.30;;
43744;SDS011;29359;53.048;8.732;2022-11-04T14:04:52;3.67;;;1.60;;
43744;SDS011;29359;53.048;8.732;2022-11-04T14:06:56;3.72;;;1.45;;
43744;SDS011;29359;53.048;8.732;2022-11-04T14:14:19;4.65;;;1.40;;
43744;SDS011;29359;53.048;8.732;2022-11-04T14:18:34;4.40;;;1.30;;
43744;SDS011;29359;53.048;8.732;2022-11-04T14:20:40;5.15;;;1.40;;
43744;SDS011;29359;53.048;8.732;2022-11-04T14:23:19;6.18;;;1.48;;
43744;SDS011;29359;53.048;8.732;2022-11-04T14:25:36;2.17;;;1.23;;
43744;SDS011;29359;53.048;8.732;2022-11-04T14:27:44;4.25;;;1.30;;
43744;SDS011;29359;53.048;8.732;2022-11-04T14:29:49;4.95;;;1.70;;
43744;SDS011;29359;53.048;8.732;2022-11-04T14:31:56;3.08;;;1.27;;
43744;SDS011;29359;53.048;8.732;2022-11-04T14:34:00;4.47;;;1.17;;
43744;SDS011;29359;53.048;8.732;2022-11-04T14:36:25;4.30;;;1.20;;